sensor_id;sensor_type;location;lat;lon;timestamp;P1;durP1;ratioP1;P2;durP2;ratioP2
21430;SDS011;10876;49.038;10.608;2024-02-16T00:02:07;1.55;;;0.90;;
21430;SDS011;10876;49.038;10.608;2024-02-16T00:04:34;1.67;;;1.27;;
21430;SDS011;10876;49.038;10.608;2024-02-16T00:07:01;1.42;;;1.10;;
21430;SDS011;10876;49.038;10.608;2024-02-16T00:09:28;1.67;;;1.27;;
21430;SDS011;10876;49.038;10.608;2024-02-16T00:11:59;2.67;;;1.83;;
21430;SDS011;10876;49.038;10.608;2024-02-16T00:14:29;1.60;;;1.10;;
21430;SDS011;10876;49.038;10.608;2024-02-16T00:16:55;2.13;;;1.55;;
21430;SDS011;10876;49.038;10.608;2024-02-16T00:19:22;2.08;;;1.45;;
21430;SDS011;10876;49.038;10.608;2024-02-16T00:21:49;2.58;;;1.70;;
21430;SDS011;10876;49.038;10.608;2024-02-16T00:24:16;1.88;;;1.35;;
21430;SDS011;10876;49.038;10.608;2024-02-16T00:26:43;1.55;;;1.20;;
21430;SDS011;10876;49.038;10.608;2024-02-16T00:29:12;2.60;;;1.48;;
21430;SDS011;10876;49.038;10.608;2024-02-16T00:31:38;1.80;;;1.60;;
21430;SDS011;10876;49.038;10.608;2024-02-16T00:34:05;1.33;;;1.23;;
21430;SDS011;10876;49.038;10.608;2024-02-16T00:36:31;3.15;;;2.03;;
21430;SDS011;10876;49.038;10.608;2024-02-16T00:38:59;4.45;;;1.92;;
21430;SDS011;10876;49.038;10.608;2024-02-16T00:41:26;1.83;;;1.35;;
21430;SDS011;10876;49.038;10.608;2024-02-16T00:43:52;2.60;;;1.80;;
21430;SDS011;10876;49.038;10.608;2024-02-16T00:46:20;2.88;;;1.90;;
21430;SDS011;10876;49.038;10.608;2024-02-16T00:48:48;1.98;;;1.77;;
21430;SDS011;10876;49.038;10.608;2024-02-16T00:51:15;2.55;;;1.80;;
21430;SDS011;10876;49.038;10.608;2024-02-16T00:53:41;4.05;;;2.38;;
21430;SDS011;10876;49.038;10.608;2024-02-16T00:56:08;7.65;;;1.92;;
21430;SDS011;10876;49.038;10.608;2024-02-16T00:58:35;3.15;;;2.22;;
21430;SDS011;10876;49.038;10.608;2024-02-16T01:01:01;3.35;;;1.77;;
21430;SDS011;10876;49.038;10.608;2024-02-16T01:03:30;2.88;;;1.63;;
21430;SDS011;10876;49.038;10.608;2024-02-16T01:05:58;2.92;;;1.88;;
21430;SDS011;10876;49.038;10.608;2024-02-16T01:08:24;3.25;;;2.20;;
21430;SDS011;10876;49.038;10.608;2024-02-16T01:10:52;2.45;;;2.08;;
21430;SDS011;10876;49.038;10.608;2024-02-16T01:13:19;2.08;;;1.50;;
21430;SDS011;10876;49.038;10.608;2024-02-16T01:15:46;3.85;;;2.42;;
21430;SDS011;10876;49.038;10.608;2024-02-16T01:18:13;2.45;;;2.05;;
21430;SDS011;10876;49.038;10.608;2024-02-16T01:20:42;4.75;;;2.85;;
21430;SDS011;10876;49.038;10.608;2024-02-16T01:23:09;4.65;;;2.55;;
21430;SDS011;10876;49.038;10.608;2024-02-16T01:25:36;1.98;;;1.50;;
21430;SDS011;10876;49.038;10.608;2024-02-16T01:28:03;4.18;;;2.38;;
21430;SDS011;10876;49.038;10.608;2024-02-16T01:30:31;4.47;;;3.30;;
21430;SDS011;10876;49.038;10.608;2024-02-16T01:32:58;2.97;;;2.00;;
21430;SDS011;10876;49.038;10.608;2024-02-16T01:35:25;3.97;;;2.55;;
21430;SDS011;10876;49.038;10.608;2024-02-16T01:37:54;3.67;;;2.20;;
21430;SDS011;10876;49.038;10.608;2024-02-16T01:40:21;5.43;;;2.60;;
21430;SDS011;10876;49.038;10.608;2024-02-16T01:42:51;7.80;;;2.42;;
21430;SDS011;10876;49.038;10.608;2024-02-16T01:45:19;4.47;;;2.60;;
21430;SDS011;10876;49.038;10.608;2024-02-16T01:47:47;2.35;;;1.92;;
21430;SDS011;10876;49.038;10.608;2024-02-16T01:50:15;2.63;;;2.35;;
21430;SDS011;10876;49.038;10.608;2024-02-16T01:52:42;2.97;;;2.20;;
21430;SDS011;10876;49.038;10.608;2024-02-16T01:55:10;2.95;;;2.58;;
21430;SDS011;10876;49.038;10.608;2024-02-16T01:57:37;4.22;;;2.13;;
21430;SDS011;10876;49.038;10.608;2024-02-16T02:00:04;4.00;;;2.58;;
21430;SDS011;10876;49.038;10.608;2024-02-16T02:02:33;3.17;;;2.40;;
21430;SDS011;10876;49.038;10.608;2024-02-16T02:04:59;2.25;;;1.63;;
21430;SDS011;10876;49.038;10.608;2024-02-16T02:07:26;4.15;;;2.90;;
21430;SDS011;10876;49.038;10.608;2024-02-16T02:09:53;4.60;;;2.80;;
21430;SDS011;10876;49.038;10.608;2024-02-16T02:12:21;2.85;;;2.15;;
21430;SDS011;10876;49.038;10.608;2024-02-16T02:14:48;4.88;;;2.28;;
21430;SDS011;10876;49.038;10.608;2024-02-16T02:17:15;6.65;;;2.88;;
21430;SDS011;10876;49.038;10.608;2024-02-16T02:19:41;3.58;;;2.92;;
21430;SDS011;10876;49.038;10.608;2024-02-16T02:22:12;3.20;;;2.72;;
21430;SDS011;10876;49.038;10.608;2024-02-16T02:24:39;5.70;;;3.08;;
21430;SDS011;10876;49.038;10.608;2024-02-16T02:27:05;4.18;;;2.95;;
21430;SDS011;10876;49.038;10.608;2024-02-16T02:29:32;2.95;;;2.58;;
21430;SDS011;10876;49.038;10.608;2024-02-16T02:31:59;3.92;;;2.70;;
21430;SDS011;10876;49.038;10.608;2024-02-16T02:34:26;2.70;;;2.10;;
21430;SDS011;10876;49.038;10.608;2024-02-16T02:36:53;3.00;;;2.28;;
21430;SDS011;10876;49.038;10.608;2024-02-16T02:39:21;5.18;;;2.65;;
21430;SDS011;10876;49.038;10.608;2024-02-16T02:41:47;3.42;;;2.15;;
21430;SDS011;10876;49.038;10.608;2024-02-16T02:44:14;3.72;;;2.45;;
21430;SDS011;10876;49.038;10.608;2024-02-16T02:46:41;3.53;;;2.53;;
21430;SDS011;10876;49.038;10.608;2024-02-16T02:49:07;2.78;;;2.35;;
21430;SDS011;10876;49.038;10.608;2024-02-16T02:51:34;6.78;;;2.75;;
21430;SDS011;10876;49.038;10.608;2024-02-16T02:54:01;4.78;;;3.13;;
21430;SDS011;10876;49.038;10.608;2024-02-16T02:56:29;3.97;;;2.83;;
21430;SDS011;10876;49.038;10.608;2024-02-16T02:58:55;3.83;;;2.30;;
21430;SDS011;10876;49.038;10.608;2024-02-16T03:01:22;3.67;;;2.67;;
21430;SDS011;10876;49.038;10.608;2024-02-16T03:03:48;5.53;;;2.58;;
21430;SDS011;10876;49.038;10.608;2024-02-16T03:06:17;4.00;;;2.92;;
21430;SDS011;10876;49.038;10.608;2024-02-16T03:08:43;5.70;;;2.75;;
21430;SDS011;10876;49.038;10.608;2024-02-16T03:11:10;4.97;;;2.65;;
21430;SDS011;10876;49.038;10.608;2024-02-16T03:13:38;4.20;;;2.72;;
21430;SDS011;10876;49.038;10.608;2024-02-16T03:16:05;2.78;;;2.28;;
21430;SDS011;10876;49.038;10.608;2024-02-16T03:18:32;6.22;;;2.65;;
21430;SDS011;10876;49.038;10.608;2024-02-16T03:20:59;5.90;;;2.92;;
21430;SDS011;10876;49.038;10.608;2024-02-16T03:23:26;5.28;;;3.00;;
21430;SDS011;10876;49.038;10.608;2024-02-16T03:25:52;3.63;;;2.58;;
21430;SDS011;10876;49.038;10.608;2024-02-16T03:28:19;4.30;;;2.95;;
21430;SDS011;10876;49.038;10.608;2024-02-16T03:30:48;7.55;;;3.22;;
21430;SDS011;10876;49.038;10.608;2024-02-16T03:33:15;4.63;;;2.53;;
21430;SDS011;10876;49.038;10.608;2024-02-16T03:35:42;6.72;;;2.85;;
21430;SDS011;10876;49.038;10.608;2024-02-16T03:38:09;2.72;;;2.35;;
21430;SDS011;10876;49.038;10.608;2024-02-16T03:40:35;5.20;;;2.75;;
21430;SDS011;10876;49.038;10.608;2024-02-16T03:43:02;4.65;;;3.03;;
21430;SDS011;10876;49.038;10.608;2024-02-16T03:45:29;3.83;;;3.08;;
21430;SDS011;10876;49.038;10.608;2024-02-16T03:47:57;5.32;;;2.92;;
21430;SDS011;10876;49.038;10.608;2024-02-16T03:50:23;7.55;;;3.13;;
21430;SDS011;10876;49.038;10.608;2024-02-16T03:52:50;3.90;;;2.42;;
21430;SDS011;10876;49.038;10.608;2024-02-16T03:55:17;6.15;;;3.10;;
21430;SDS011;10876;49.038;10.608;2024-02-16T03:57:43;3.90;;;2.55;;
21430;SDS011;10876;49.038;10.608;2024-02-16T04:00:10;7.05;;;2.88;;
21430;SDS011;10876;49.038;10.608;2024-02-16T04:02:37;4.80;;;2.90;;
21430;SDS011;10876;49.038;10.608;2024-02-16T04:05:06;5.57;;;2.80;;
21430;SDS011;10876;49.038;10.608;2024-02-16T04:07:33;6.85;;;2.90;;
21430;SDS011;10876;49.038;10.608;2024-02-16T04:10:00;5.80;;;2.95;;
21430;SDS011;10876;49.038;10.608;2024-02-16T04:12:26;4.38;;;2.42;;
21430;SDS011;10876;49.038;10.608;2024-02-16T04:14:53;4.05;;;2.10;;
21430;SDS011;10876;49.038;10.608;2024-02-16T04:17:20;5.85;;;3.47;;
21430;SDS011;10876;49.038;10.608;2024-02-16T04:19:46;7.15;;;3.50;;
21430;SDS011;10876;49.038;10.608;2024-02-16T04:22:14;11.50;;;2.60;;
21430;SDS011;10876;49.038;10.608;2024-02-16T04:24:41;3.10;;;2.40;;
21430;SDS011;10876;49.038;10.608;2024-02-16T04:27:08;5.05;;;2.40;;
21430;SDS011;10876;49.038;10.608;2024-02-16T04:29:34;5.13;;;3.08;;
21430;SDS011;10876;49.038;10.608;2024-02-16T04:32:01;5.72;;;2.55;;
21430;SDS011;10876;49.038;10.608;2024-02-16T04:34:28;3.92;;;2.60;;
21430;SDS011;10876;49.038;10.608;2024-02-16T04:36:55;3.95;;;2.70;;
21430;SDS011;10876;49.038;10.608;2024-02-16T04:39:23;3.70;;;3.35;;
21430;SDS011;10876;49.038;10.608;2024-02-16T04:41:49;7.50;;;3.97;;
21430;SDS011;10876;49.038;10.608;2024-02-16T04:44:17;3.42;;;2.78;;
21430;SDS011;10876;49.038;10.608;2024-02-16T04:46:43;4.07;;;2.72;;
21430;SDS011;10876;49.038;10.608;2024-02-16T04:49:10;4.50;;;2.38;;
21430;SDS011;10876;49.038;10.608;2024-02-16T04:51:36;5.03;;;2.67;;
21430;SDS011;10876;49.038;10.608;2024-02-16T04:54:04;4.50;;;2.05;;
21430;SDS011;10876;49.038;10.608;2024-02-16T04:56:32;3.85;;;2.50;;
21430;SDS011;10876;49.038;10.608;2024-02-16T04:58:59;3.60;;;2.85;;
21430;SDS011;10876;49.038;10.608;2024-02-16T05:01:26;6.30;;;2.42;;
21430;SDS011;10876;49.038;10.608;2024-02-16T05:03:54;3.50;;;2.08;;
21430;SDS011;10876;49.038;10.608;2024-02-16T05:06:20;6.65;;;2.50;;
21430;SDS011;10876;49.038;10.608;2024-02-16T05:08:48;5.13;;;2.20;;
21430;SDS011;10876;49.038;10.608;2024-02-16T05:11:15;3.53;;;2.10;;
21430;SDS011;10876;49.038;10.608;2024-02-16T05:13:43;4.78;;;2.97;;
21430;SDS011;10876;49.038;10.608;2024-02-16T05:16:10;5.93;;;3.28;;
21430;SDS011;10876;49.038;10.608;2024-02-16T05:18:37;4.88;;;2.75;;
21430;SDS011;10876;49.038;10.608;2024-02-16T05:21:04;5.75;;;3.10;;
21430;SDS011;10876;49.038;10.608;2024-02-16T05:23:31;3.05;;;2.70;;
21430;SDS011;10876;49.038;10.608;2024-02-16T05:25:58;6.00;;;2.25;;
21430;SDS011;10876;49.038;10.608;2024-02-16T05:28:24;2.83;;;2.53;;
21430;SDS011;10876;49.038;10.608;2024-02-16T05:30:52;3.35;;;2.03;;
21430;SDS011;10876;49.038;10.608;2024-02-16T05:33:19;6.63;;;3.40;;
21430;SDS011;10876;49.038;10.608;2024-02-16T05:35:46;4.15;;;3.00;;
21430;SDS011;10876;49.038;10.608;2024-02-16T05:38:20;4.43;;;2.58;;
21430;SDS011;10876;49.038;10.608;2024-02-16T05:40:57;4.95;;;3.30;;
21430;SDS011;10876;49.038;10.608;2024-02-16T05:43:24;5.03;;;2.78;;
21430;SDS011;10876;49.038;10.608;2024-02-16T05:45:50;5.10;;;3.58;;
21430;SDS011;10876;49.038;10.608;2024-02-16T05:48:18;15.32;;;4.05;;
21430;SDS011;10876;49.038;10.608;2024-02-16T05:50:47;6.38;;;3.65;;
21430;SDS011;10876;49.038;10.608;2024-02-16T05:53:15;5.63;;;3.30;;
21430;SDS011;10876;49.038;10.608;2024-02-16T05:55:42;5.25;;;3.75;;
21430;SDS011;10876;49.038;10.608;2024-02-16T05:58:09;6.10;;;3.25;;
21430;SDS011;10876;49.038;10.608;2024-02-16T06:00:37;8.70;;;4.80;;
21430;SDS011;10876;49.038;10.608;2024-02-16T06:03:04;5.20;;;3.25;;
21430;SDS011;10876;49.038;10.608;2024-02-16T06:05:32;6.85;;;3.78;;
21430;SDS011;10876;49.038;10.608;2024-02-16T06:07:59;6.88;;;3.35;;
21430;SDS011;10876;49.038;10.608;2024-02-16T06:10:26;5.45;;;3.83;;
21430;SDS011;10876;49.038;10.608;2024-02-16T06:12:52;6.15;;;3.50;;
21430;SDS011;10876;49.038;10.608;2024-02-16T06:15:19;12.63;;;5.45;;
21430;SDS011;10876;49.038;10.608;2024-02-16T06:17:47;8.15;;;3.88;;
21430;SDS011;10876;49.038;10.608;2024-02-16T06:20:18;4.03;;;3.63;;
21430;SDS011;10876;49.038;10.608;2024-02-16T06:27:47;8.95;;;3.83;;
21430;SDS011;10876;49.038;10.608;2024-02-16T06:30:24;6.78;;;4.80;;
21430;SDS011;10876;49.038;10.608;2024-02-16T06:32:50;7.47;;;3.78;;
21430;SDS011;10876;49.038;10.608;2024-02-16T06:35:20;7.00;;;5.00;;
21430;SDS011;10876;49.038;10.608;2024-02-16T06:37:46;7.32;;;4.68;;
21430;SDS011;10876;49.038;10.608;2024-02-16T06:40:13;4.80;;;3.20;;
21430;SDS011;10876;49.038;10.608;2024-02-16T06:42:47;7.57;;;4.72;;
21430;SDS011;10876;49.038;10.608;2024-02-16T06:45:14;9.05;;;4.32;;
21430;SDS011;10876;49.038;10.608;2024-02-16T06:47:41;6.07;;;3.63;;
21430;SDS011;10876;49.038;10.608;2024-02-16T06:50:08;7.50;;;5.50;;
21430;SDS011;10876;49.038;10.608;2024-02-16T06:52:34;10.57;;;6.15;;
21430;SDS011;10876;49.038;10.608;2024-02-16T06:55:01;6.30;;;4.72;;
21430;SDS011;10876;49.038;10.608;2024-02-16T06:57:28;10.30;;;5.05;;
21430;SDS011;10876;49.038;10.608;2024-02-16T06:59:58;8.98;;;3.75;;
21430;SDS011;10876;49.038;10.608;2024-02-16T07:02:28;7.07;;;4.05;;
21430;SDS011;10876;49.038;10.608;2024-02-16T07:04:55;6.45;;;4.10;;
21430;SDS011;10876;49.038;10.608;2024-02-16T07:07:22;11.32;;;4.80;;
21430;SDS011;10876;49.038;10.608;2024-02-16T07:09:48;7.55;;;4.50;;
21430;SDS011;10876;49.038;10.608;2024-02-16T07:12:15;13.27;;;4.28;;
21430;SDS011;10876;49.038;10.608;2024-02-16T07:14:42;8.10;;;4.25;;
21430;SDS011;10876;49.038;10.608;2024-02-16T07:17:11;7.38;;;4.30;;
21430;SDS011;10876;49.038;10.608;2024-02-16T07:19:38;8.13;;;3.97;;
21430;SDS011;10876;49.038;10.608;2024-02-16T07:24:39;9.13;;;5.30;;
21430;SDS011;10876;49.038;10.608;2024-02-16T07:27:06;9.35;;;4.75;;
21430;SDS011;10876;49.038;10.608;2024-02-16T07:29:32;7.03;;;4.50;;
21430;SDS011;10876;49.038;10.608;2024-02-16T07:32:01;8.35;;;5.45;;
21430;SDS011;10876;49.038;10.608;2024-02-16T07:34:30;11.77;;;5.68;;
21430;SDS011;10876;49.038;10.608;2024-02-16T07:36:57;9.98;;;5.20;;
21430;SDS011;10876;49.038;10.608;2024-02-16T07:41:58;10.95;;;6.03;;
21430;SDS011;10876;49.038;10.608;2024-02-16T07:44:25;9.35;;;5.55;;
21430;SDS011;10876;49.038;10.608;2024-02-16T07:46:54;8.07;;;4.75;;
21430;SDS011;10876;49.038;10.608;2024-02-16T07:49:21;6.60;;;4.60;;
21430;SDS011;10876;49.038;10.608;2024-02-16T07:51:49;9.27;;;5.28;;
21430;SDS011;10876;49.038;10.608;2024-02-16T07:54:16;7.88;;;5.25;;
21430;SDS011;10876;49.038;10.608;2024-02-16T07:56:42;9.00;;;5.10;;
21430;SDS011;10876;49.038;10.608;2024-02-16T07:59:09;9.65;;;5.13;;
21430;SDS011;10876;49.038;10.608;2024-02-16T08:01:36;8.55;;;5.45;;
21430;SDS011;10876;49.038;10.608;2024-02-16T08:04:02;10.20;;;5.22;;
21430;SDS011;10876;49.038;10.608;2024-02-16T08:06:29;10.48;;;6.05;;
21430;SDS011;10876;49.038;10.608;2024-02-16T08:08:57;7.55;;;4.85;;
21430;SDS011;10876;49.038;10.608;2024-02-16T08:11:24;8.52;;;5.65;;
21430;SDS011;10876;49.038;10.608;2024-02-16T08:13:51;8.10;;;5.80;;
21430;SDS011;10876;49.038;10.608;2024-02-16T08:16:17;11.43;;;4.88;;
21430;SDS011;10876;49.038;10.608;2024-02-16T08:18:44;9.90;;;5.88;;
21430;SDS011;10876;49.038;10.608;2024-02-16T08:21:11;9.23;;;5.05;;
21430;SDS011;10876;49.038;10.608;2024-02-16T08:23:38;10.15;;;5.57;;
21430;SDS011;10876;49.038;10.608;2024-02-16T08:26:06;10.98;;;5.53;;
21430;SDS011;10876;49.038;10.608;2024-02-16T08:28:33;8.10;;;4.97;;
21430;SDS011;10876;49.038;10.608;2024-02-16T08:31:00;10.50;;;5.07;;
21430;SDS011;10876;49.038;10.608;2024-02-16T08:33:26;10.70;;;5.05;;
21430;SDS011;10876;49.038;10.608;2024-02-16T08:35:53;10.88;;;6.05;;
21430;SDS011;10876;49.038;10.608;2024-02-16T08:38:19;9.25;;;5.28;;
21430;SDS011;10876;49.038;10.608;2024-02-16T08:40:46;9.40;;;5.72;;
21430;SDS011;10876;49.038;10.608;2024-02-16T08:43:14;9.60;;;4.57;;
21430;SDS011;10876;49.038;10.608;2024-02-16T08:45:41;10.07;;;4.88;;
21430;SDS011;10876;49.038;10.608;2024-02-16T08:48:07;12.48;;;6.10;;
21430;SDS011;10876;49.038;10.608;2024-02-16T08:50:34;10.15;;;4.97;;
21430;SDS011;10876;49.038;10.608;2024-02-16T08:53:01;7.35;;;4.10;;
21430;SDS011;10876;49.038;10.608;2024-02-16T08:55:27;8.73;;;4.82;;
21430;SDS011;10876;49.038;10.608;2024-02-16T08:57:54;12.95;;;5.15;;
21430;SDS011;10876;49.038;10.608;2024-02-16T09:00:22;9.57;;;5.38;;
21430;SDS011;10876;49.038;10.608;2024-02-16T09:02:52;7.53;;;4.90;;
21430;SDS011;10876;49.038;10.608;2024-02-16T09:05:19;14.45;;;6.78;;
21430;SDS011;10876;49.038;10.608;2024-02-16T09:07:45;8.05;;;4.82;;
21430;SDS011;10876;49.038;10.608;2024-02-16T09:10:16;8.25;;;5.10;;
21430;SDS011;10876;49.038;10.608;2024-02-16T09:12:42;7.95;;;5.38;;
21430;SDS011;10876;49.038;10.608;2024-02-16T09:15:09;9.88;;;4.80;;
21430;SDS011;10876;49.038;10.608;2024-02-16T09:17:38;9.82;;;5.43;;
21430;SDS011;10876;49.038;10.608;2024-02-16T09:20:05;9.77;;;5.63;;
21430;SDS011;10876;49.038;10.608;2024-02-16T09:22:33;8.73;;;5.55;;
21430;SDS011;10876;49.038;10.608;2024-02-16T09:25:01;10.27;;;4.93;;
21430;SDS011;10876;49.038;10.608;2024-02-16T09:27:28;7.68;;;4.85;;
21430;SDS011;10876;49.038;10.608;2024-02-16T09:29:54;9.95;;;5.38;;
21430;SDS011;10876;49.038;10.608;2024-02-16T09:32:22;8.43;;;4.90;;
21430;SDS011;10876;49.038;10.608;2024-02-16T09:34:50;10.70;;;4.72;;
21430;SDS011;10876;49.038;10.608;2024-02-16T09:37:17;10.70;;;5.22;;
21430;SDS011;10876;49.038;10.608;2024-02-16T09:39:44;9.43;;;5.60;;
21430;SDS011;10876;49.038;10.608;2024-02-16T09:42:10;11.80;;;6.03;;
21430;SDS011;10876;49.038;10.608;2024-02-16T09:44:39;12.35;;;5.30;;
21430;SDS011;10876;49.038;10.608;2024-02-16T09:47:06;9.50;;;5.95;;
21430;SDS011;10876;49.038;10.608;2024-02-16T09:49:35;10.57;;;5.72;;
21430;SDS011;10876;49.038;10.608;2024-02-16T09:52:04;11.57;;;5.43;;
21430;SDS011;10876;49.038;10.608;2024-02-16T09:54:31;10.32;;;5.95;;
21430;SDS011;10876;49.038;10.608;2024-02-16T09:56:59;8.20;;;5.13;;
21430;SDS011;10876;49.038;10.608;2024-02-16T09:59:26;8.82;;;5.75;;
21430;SDS011;10876;49.038;10.608;2024-02-16T10:01:58;9.70;;;6.18;;
21430;SDS011;10876;49.038;10.608;2024-02-16T10:04:25;8.30;;;4.32;;
21430;SDS011;10876;49.038;10.608;2024-02-16T10:06:52;10.82;;;5.80;;
21430;SDS011;10876;49.038;10.608;2024-02-16T10:09:24;11.25;;;5.20;;
21430;SDS011;10876;49.038;10.608;2024-02-16T10:11:54;7.68;;;5.00;;
21430;SDS011;10876;49.038;10.608;2024-02-16T10:14:21;7.22;;;4.60;;
21430;SDS011;10876;49.038;10.608;2024-02-16T10:16:48;8.95;;;5.70;;
21430;SDS011;10876;49.038;10.608;2024-02-16T10:19:17;12.73;;;6.55;;
21430;SDS011;10876;49.038;10.608;2024-02-16T10:21:44;15.07;;;5.22;;
21430;SDS011;10876;49.038;10.608;2024-02-16T10:24:11;11.02;;;4.47;;
21430;SDS011;10876;49.038;10.608;2024-02-16T10:26:41;6.32;;;4.07;;
21430;SDS011;10876;49.038;10.608;2024-02-16T10:29:08;9.90;;;5.15;;
21430;SDS011;10876;49.038;10.608;2024-02-16T10:31:35;12.27;;;6.13;;
21430;SDS011;10876;49.038;10.608;2024-02-16T10:34:04;10.32;;;5.70;;
21430;SDS011;10876;49.038;10.608;2024-02-16T10:36:31;10.27;;;5.55;;
21430;SDS011;10876;49.038;10.608;2024-02-16T10:38:59;10.50;;;5.68;;
21430;SDS011;10876;49.038;10.608;2024-02-16T10:41:29;9.52;;;6.28;;
21430;SDS011;10876;49.038;10.608;2024-02-16T10:44:01;11.57;;;6.70;;
21430;SDS011;10876;49.038;10.608;2024-02-16T10:46:28;8.43;;;4.82;;
21430;SDS011;10876;49.038;10.608;2024-02-16T10:48:54;10.98;;;5.82;;
21430;SDS011;10876;49.038;10.608;2024-02-16T10:51:23;12.18;;;6.05;;
21430;SDS011;10876;49.038;10.608;2024-02-16T10:53:51;9.57;;;6.50;;
21430;SDS011;10876;49.038;10.608;2024-02-16T10:56:26;11.00;;;5.78;;
21430;SDS011;10876;49.038;10.608;2024-02-16T10:58:53;9.52;;;5.18;;
21430;SDS011;10876;49.038;10.608;2024-02-16T11:01:21;10.57;;;5.43;;
21430;SDS011;10876;49.038;10.608;2024-02-16T11:03:49;8.02;;;5.32;;
21430;SDS011;10876;49.038;10.608;2024-02-16T11:06:16;11.25;;;5.45;;
21430;SDS011;10876;49.038;10.608;2024-02-16T11:08:42;12.38;;;6.82;;
21430;SDS011;10876;49.038;10.608;2024-02-16T11:11:09;12.05;;;5.82;;
21430;SDS011;10876;49.038;10.608;2024-02-16T11:13:37;8.02;;;4.90;;
21430;SDS011;10876;49.038;10.608;2024-02-16T11:16:06;9.05;;;5.28;;
21430;SDS011;10876;49.038;10.608;2024-02-16T11:18:38;11.07;;;5.60;;
21430;SDS011;10876;49.038;10.608;2024-02-16T11:21:05;9.85;;;5.82;;
21430;SDS011;10876;49.038;10.608;2024-02-16T11:23:34;14.15;;;6.65;;
21430;SDS011;10876;49.038;10.608;2024-02-16T11:26:00;9.25;;;4.75;;
21430;SDS011;10876;49.038;10.608;2024-02-16T11:28:28;11.88;;;5.30;;
21430;SDS011;10876;49.038;10.608;2024-02-16T11:30:55;11.07;;;5.80;;
21430;SDS011;10876;49.038;10.608;2024-02-16T11:33:22;9.13;;;5.85;;
21430;SDS011;10876;49.038;10.608;2024-02-16T11:35:53;11.90;;;5.97;;
21430;SDS011;10876;49.038;10.608;2024-02-16T11:38:20;10.68;;;6.25;;
21430;SDS011;10876;49.038;10.608;2024-02-16T11:40:52;9.07;;;5.72;;
21430;SDS011;10876;49.038;10.608;2024-02-16T11:43:19;10.85;;;5.72;;
21430;SDS011;10876;49.038;10.608;2024-02-16T11:45:47;12.50;;;6.32;;
21430;SDS011;10876;49.038;10.608;2024-02-16T11:48:18;8.43;;;5.15;;
21430;SDS011;10876;49.038;10.608;2024-02-16T11:50:45;9.25;;;5.03;;
21430;SDS011;10876;49.038;10.608;2024-02-16T11:53:16;9.00;;;5.57;;
21430;SDS011;10876;49.038;10.608;2024-02-16T11:55:45;10.48;;;5.57;;
21430;SDS011;10876;49.038;10.608;2024-02-16T11:58:13;8.95;;;5.13;;
21430;SDS011;10876;49.038;10.608;2024-02-16T12:00:39;11.57;;;5.65;;
21430;SDS011;10876;49.038;10.608;2024-02-16T12:03:07;8.85;;;4.80;;
21430;SDS011;10876;49.038;10.608;2024-02-16T12:05:34;8.43;;;4.72;;
21430;SDS011;10876;49.038;10.608;2024-02-16T12:08:00;6.80;;;5.00;;
21430;SDS011;10876;49.038;10.608;2024-02-16T12:10:28;9.95;;;5.68;;
21430;SDS011;10876;49.038;10.608;2024-02-16T12:12:55;8.25;;;5.07;;
21430;SDS011;10876;49.038;10.608;2024-02-16T12:15:22;7.95;;;4.97;;
21430;SDS011;10876;49.038;10.608;2024-02-16T12:17:57;10.05;;;4.82;;
21430;SDS011;10876;49.038;10.608;2024-02-16T12:20:24;7.72;;;4.72;;
21430;SDS011;10876;49.038;10.608;2024-02-16T12:22:51;12.15;;;5.63;;
21430;SDS011;10876;49.038;10.608;2024-02-16T12:25:18;8.75;;;4.97;;
21430;SDS011;10876;49.038;10.608;2024-02-16T12:27:46;8.85;;;4.95;;
21430;SDS011;10876;49.038;10.608;2024-02-16T12:30:13;8.02;;;5.03;;
21430;SDS011;10876;49.038;10.608;2024-02-16T12:32:40;6.43;;;4.57;;
21430;SDS011;10876;49.038;10.608;2024-02-16T12:35:07;8.85;;;4.90;;
21430;SDS011;10876;49.038;10.608;2024-02-16T12:37:34;11.48;;;5.47;;
21430;SDS011;10876;49.038;10.608;2024-02-16T12:40:02;8.75;;;5.57;;
21430;SDS011;10876;49.038;10.608;2024-02-16T12:42:31;8.88;;;4.97;;
21430;SDS011;10876;49.038;10.608;2024-02-16T12:44:59;9.38;;;5.25;;
21430;SDS011;10876;49.038;10.608;2024-02-16T12:47:26;9.80;;;5.65;;
21430;SDS011;10876;49.038;10.608;2024-02-16T12:49:55;8.98;;;5.47;;
21430;SDS011;10876;49.038;10.608;2024-02-16T12:52:22;8.38;;;5.10;;
21430;SDS011;10876;49.038;10.608;2024-02-16T12:54:48;9.85;;;4.70;;
21430;SDS011;10876;49.038;10.608;2024-02-16T12:57:15;9.45;;;4.80;;
21430;SDS011;10876;49.038;10.608;2024-02-16T12:59:42;7.90;;;4.70;;
21430;SDS011;10876;49.038;10.608;2024-02-16T13:02:10;9.65;;;5.50;;
21430;SDS011;10876;49.038;10.608;2024-02-16T13:04:36;10.32;;;5.75;;
21430;SDS011;10876;49.038;10.608;2024-02-16T13:07:03;13.18;;;5.07;;
21430;SDS011;10876;49.038;10.608;2024-02-16T13:09:30;7.85;;;4.97;;
21430;SDS011;10876;49.038;10.608;2024-02-16T13:11:56;9.27;;;5.40;;
21430;SDS011;10876;49.038;10.608;2024-02-16T13:14:23;8.60;;;4.25;;
21430;SDS011;10876;49.038;10.608;2024-02-16T13:16:49;10.40;;;5.03;;
21430;SDS011;10876;49.038;10.608;2024-02-16T13:19:17;8.85;;;4.95;;
21430;SDS011;10876;49.038;10.608;2024-02-16T13:21:44;10.32;;;4.95;;
21430;SDS011;10876;49.038;10.608;2024-02-16T13:24:11;8.63;;;4.57;;
21430;SDS011;10876;49.038;10.608;2024-02-16T13:26:38;8.38;;;4.97;;
21430;SDS011;10876;49.038;10.608;2024-02-16T13:29:05;13.10;;;5.10;;
21430;SDS011;10876;49.038;10.608;2024-02-16T13:31:32;10.70;;;5.10;;
21430;SDS011;10876;49.038;10.608;2024-02-16T13:33:58;6.57;;;4.43;;
21430;SDS011;10876;49.038;10.608;2024-02-16T13:36:27;7.85;;;4.30;;
21430;SDS011;10876;49.038;10.608;2024-02-16T13:38:54;7.32;;;3.97;;
21430;SDS011;10876;49.038;10.608;2024-02-16T13:41:20;10.25;;;5.40;;
21430;SDS011;10876;49.038;10.608;2024-02-16T13:43:47;6.75;;;4.25;;
21430;SDS011;10876;49.038;10.608;2024-02-16T13:46:14;7.32;;;4.38;;
21430;SDS011;10876;49.038;10.608;2024-02-16T13:48:41;7.75;;;4.85;;
21430;SDS011;10876;49.038;10.608;2024-02-16T13:51:08;8.50;;;4.53;;
21430;SDS011;10876;49.038;10.608;2024-02-16T13:53:36;7.85;;;4.40;;
21430;SDS011;10876;49.038;10.608;2024-02-16T13:56:03;7.72;;;4.40;;
21430;SDS011;10876;49.038;10.608;2024-02-16T13:58:31;6.10;;;3.88;;
21430;SDS011;10876;49.038;10.608;2024-02-16T14:00:59;7.63;;;4.30;;
21430;SDS011;10876;49.038;10.608;2024-02-16T14:03:27;6.88;;;4.18;;
21430;SDS011;10876;49.038;10.608;2024-02-16T14:05:53;7.20;;;4.13;;
21430;SDS011;10876;49.038;10.608;2024-02-16T14:08:20;12.25;;;4.75;;
21430;SDS011;10876;49.038;10.608;2024-02-16T14:10:49;8.23;;;4.57;;
21430;SDS011;10876;49.038;10.608;2024-02-16T14:13:15;9.55;;;5.00;;
21430;SDS011;10876;49.038;10.608;2024-02-16T14:15:42;9.15;;;4.30;;
21430;SDS011;10876;49.038;10.608;2024-02-16T14:18:09;9.80;;;3.85;;
21430;SDS011;10876;49.038;10.608;2024-02-16T14:20:35;7.82;;;4.55;;
21430;SDS011;10876;49.038;10.608;2024-02-16T14:23:02;9.05;;;4.43;;
21430;SDS011;10876;49.038;10.608;2024-02-16T14:25:29;9.02;;;4.57;;
21430;SDS011;10876;49.038;10.608;2024-02-16T14:27:57;7.03;;;3.72;;
21430;SDS011;10876;49.038;10.608;2024-02-16T14:30:24;12.20;;;4.15;;
21430;SDS011;10876;49.038;10.608;2024-02-16T14:32:58;11.90;;;4.97;;
21430;SDS011;10876;49.038;10.608;2024-02-16T14:35:25;8.32;;;4.53;;
21430;SDS011;10876;49.038;10.608;2024-02-16T14:40:30;7.78;;;4.20;;
21430;SDS011;10876;49.038;10.608;2024-02-16T14:42:59;7.00;;;3.33;;
21430;SDS011;10876;49.038;10.608;2024-02-16T14:45:31;8.95;;;3.92;;